createdAt,value
2018-09-02T12:36:44.768Z,16.6
2018-09-02T12:41:47.249Z,16.5
2018-09-02T12:46:49.675Z,16.4
2018-09-02T12:51:52.218Z,16.2
2018-09-02T12:56:54.608Z,16.2
2018-09-02T13:01:57.057Z,16.2
2018-09-02T13:07:00.376Z,16
2018-09-02T13:17:04.418Z,16.1
2018-09-02T13:22:06.960Z,16.1
2018-09-02T13:27:09.431Z,16.1
2018-09-02T13:32:12.004Z,15.9
2018-09-02T13:37:14.331Z,16.1
2018-09-02T13:42:16.711Z,16.1
2018-09-02T13:47:19.321Z,16.1
2018-09-02T13:52:21.642Z,16.2
2018-09-02T13:57:24.116Z,16.2
2018-09-02T14:02:26.585Z,16.1
2018-09-02T14:07:29.020Z,16.1
2018-09-02T14:12:31.453Z,16.2
2018-09-02T14:17:33.928Z,16.3
2018-09-02T14:22:36.375Z,16.5
2018-09-02T14:27:38.848Z,16.5
2018-09-02T14:32:41.285Z,16.5
2018-09-02T14:37:43.755Z,16.3
2018-09-02T14:42:46.232Z,16.2
2018-09-02T14:47:48.663Z,16.1
2018-09-02T14:52:51.352Z,16
2018-09-02T14:57:53.673Z,16.1
2018-09-02T15:02:56.055Z,16
2018-09-02T15:07:58.519Z,15.9
2018-09-02T15:13:01.484Z,15.9
2018-09-02T15:18:03.428Z,15.9
2018-09-02T15:23:05.871Z,15.8
2018-09-02T15:28:08.360Z,15.8
2018-09-02T15:33:10.779Z,15.9
2018-09-02T15:38:13.348Z,15.8
2018-09-02T15:43:15.706Z,15.9
2018-09-02T15:53:20.628Z,16
2018-09-02T15:58:23.110Z,16
2018-09-02T16:03:25.818Z,16
2018-09-02T16:08:28.523Z,16
2018-09-02T16:13:31.590Z,15.9
2018-09-02T16:18:32.907Z,15.7
2018-09-02T16:23:35.367Z,15.6
2018-09-02T16:28:37.852Z,15.6
2018-09-02T16:33:40.275Z,15.6
2018-09-02T16:38:42.746Z,15.6
2018-09-02T16:43:45.223Z,15.6
2018-09-02T16:48:47.946Z,15.6
2018-09-02T16:53:50.221Z,15.7
2018-09-02T16:58:52.629Z,15.7
2018-09-02T17:03:55.078Z,15.7
2018-09-02T17:08:57.510Z,15.7
2018-09-02T17:14:00.042Z,15.8
2018-09-02T17:19:02.427Z,15.8
2018-09-02T17:24:04.889Z,15.7
2018-09-02T17:29:07.505Z,15.7
2018-09-02T17:34:09.801Z,15.6
2018-09-02T17:39:12.276Z,15.6
2018-09-02T17:44:14.789Z,15.5
2018-09-02T17:49:17.209Z,15.7
2018-09-02T17:54:19.646Z,15.6
2018-09-02T17:59:22.119Z,15.7
2018-09-02T18:04:24.537Z,15.8
2018-09-02T18:09:26.991Z,15.8
2018-09-02T18:14:29.927Z,15.6
2018-09-02T18:19:31.898Z,15.6
2018-09-02T18:24:34.364Z,15.6
2018-09-02T18:29:36.838Z,15.6
2018-09-02T18:34:39.314Z,15.8
2018-09-02T18:39:41.874Z,15.8
2018-09-02T18:44:44.283Z,15.8
2018-09-02T18:49:46.810Z,15.9
2018-09-02T18:54:49.581Z,15.9
2018-09-02T18:59:51.568Z,15.9
2018-09-02T19:04:54.148Z,15.9
2018-09-02T19:09:56.574Z,16
2018-09-02T19:14:59.084Z,16.1
2018-09-02T19:20:01.742Z,16.2
2018-09-02T19:25:03.875Z,16.2
2018-09-02T19:30:07.252Z,16.2
2018-09-02T19:35:08.776Z,16.1
2018-09-02T19:40:11.270Z,16.2
2018-09-02T19:45:13.698Z,16.2
2018-09-02T19:50:16.160Z,16.2
2018-09-02T19:55:18.623Z,16.2
2018-09-02T20:00:21.162Z,16.1
2018-09-02T20:05:23.552Z,16
2018-09-02T20:10:25.991Z,16
2018-09-02T20:15:28.449Z,16
2018-09-02T20:20:31.293Z,16
2018-09-02T20:25:33.355Z,15.9
2018-09-02T20:30:35.815Z,15.9
2018-09-02T20:35:38.302Z,15.9
2018-09-02T20:40:40.760Z,16
2018-09-02T20:45:43.192Z,15.9
2018-09-02T20:50:45.659Z,15.9
2018-09-02T20:55:48.109Z,15.8
2018-09-02T21:00:50.578Z,15.8
2018-09-02T21:05:53.196Z,15.7
2018-09-02T21:10:55.486Z,15.7
2018-09-02T21:15:58.332Z,15.7
2018-09-02T21:21:00.578Z,15.6
2018-09-02T21:26:02.939Z,15.6
2018-09-02T21:31:05.551Z,15.5
2018-09-02T21:36:07.820Z,15.5
2018-09-02T21:41:10.233Z,15.6
2018-09-02T21:46:12.698Z,15.8
2018-09-02T21:51:15.209Z,15.9
2018-09-02T21:56:17.611Z,15.9
2018-09-02T22:01:20.331Z,15.9
2018-09-02T22:06:22.794Z,16
2018-09-02T22:11:25.298Z,16.1
2018-09-02T22:16:27.563Z,16.1
2018-09-02T22:21:29.900Z,16.1
2018-09-02T22:26:32.355Z,16.1
2018-09-02T22:31:34.810Z,16.1
2018-09-02T22:36:37.285Z,16
2018-09-02T22:41:39.959Z,15.9
2018-09-02T22:46:42.183Z,15.7
2018-09-02T22:51:44.632Z,15.8
2018-09-02T22:56:47.116Z,16
2018-09-02T23:01:49.680Z,15.9
2018-09-02T23:06:52.449Z,16
2018-09-02T23:11:54.493Z,15.8
2018-09-02T23:16:57.113Z,15.9
2018-09-02T23:21:59.585Z,15.7
2018-09-02T23:27:02.010Z,15.8
2018-09-02T23:32:04.612Z,15.8
2018-09-02T23:37:06.779Z,15.8
2018-09-02T23:42:09.707Z,15.8
2018-09-02T23:47:11.705Z,15.8
2018-09-02T23:52:14.346Z,15.7
2018-09-02T23:57:17.108Z,15.7
